sensor_id;sensor_type;location;lat;lon;timestamp;pressure;altitude;pressure_sealevel;temperature;humidity
71938;BME280;59810;48.800;9.086;2022-12-29T00:02:26;97178.31;;;10.47;59.17
71938;BME280;59810;48.800;9.086;2022-12-29T00:04:55;97174.53;;;10.48;59.15
71938;BME280;59810;48.800;9.086;2022-12-29T00:07:20;97184.50;;;10.42;59.68
71938;BME280;59810;48.800;9.086;2022-12-29T00:09:46;97178.56;;;10.45;59.58
71938;BME280;59810;48.800;9.086;2022-12-29T00:12:11;97173.97;;;10.41;59.70
71938;BME280;59810;48.800;9.086;2022-12-29T00:14:36;97160.47;;;10.41;59.68
71938;BME280;59810;48.800;9.086;2022-12-29T00:17:22;97164.19;;;10.35;60.11
71938;BME280;59810;48.800;9.086;2022-12-29T00:19:48;97162.59;;;10.39;59.85
71938;BME280;59810;48.800;9.086;2022-12-29T00:22:31;97162.03;;;10.37;60.02
71938;BME280;59810;48.800;9.086;2022-12-29T00:25:17;97157.19;;;10.39;59.96
71938;BME280;59810;48.800;9.086;2022-12-29T00:28:04;97161.19;;;10.31;60.43
71938;BME280;59810;48.800;9.086;2022-12-29T00:30:48;97161.72;;;10.28;60.30
71938;BME280;59810;48.800;9.086;2022-12-29T00:33:33;97153.38;;;10.35;60.13
71938;BME280;59810;48.800;9.086;2022-12-29T00:38:50;97157.72;;;10.36;60.40
71938;BME280;59810;48.800;9.086;2022-12-29T00:41:35;97149.66;;;10.41;60.30
71938;BME280;59810;48.800;9.086;2022-12-29T00:44:19;97151.84;;;10.44;59.95
71938;BME280;59810;48.800;9.086;2022-12-29T00:46:44;97147.53;;;10.43;60.56
71938;BME280;59810;48.800;9.086;2022-12-29T00:49:13;97148.63;;;10.47;59.95
71938;BME280;59810;48.800;9.086;2022-12-29T00:52:06;97145.66;;;10.48;59.76
71938;BME280;59810;48.800;9.086;2022-12-29T00:54:33;97141.66;;;10.56;59.35
71938;BME280;59810;48.800;9.086;2022-12-29T00:56:59;97136.25;;;10.56;59.70
71938;BME280;59810;48.800;9.086;2022-12-29T00:59:25;97141.66;;;10.61;59.88
71938;BME280;59810;48.800;9.086;2022-12-29T01:01:53;97139.53;;;10.68;59.30
71938;BME280;59810;48.800;9.086;2022-12-29T01:04:21;97139.59;;;10.73;59.19
71938;BME280;59810;48.800;9.086;2022-12-29T01:06:47;97138.81;;;10.78;59.18
71938;BME280;59810;48.800;9.086;2022-12-29T01:09:12;97147.72;;;10.83;58.73
71938;BME280;59810;48.800;9.086;2022-12-29T01:11:57;97150.44;;;10.88;58.61
71938;BME280;59810;48.800;9.086;2022-12-29T01:14:26;97150.47;;;10.99;58.39
71938;BME280;59810;48.800;9.086;2022-12-29T01:16:55;97149.72;;;11.08;58.32
71938;BME280;59810;48.800;9.086;2022-12-29T01:19:23;97153.25;;;11.09;58.54
71938;BME280;59810;48.800;9.086;2022-12-29T01:21:49;97157.03;;;11.08;58.34
71938;BME280;59810;48.800;9.086;2022-12-29T01:24:15;97162.97;;;11.10;58.27
71938;BME280;59810;48.800;9.086;2022-12-29T01:26:41;97159.47;;;11.14;58.17
71938;BME280;59810;48.800;9.086;2022-12-29T01:29:07;97153.25;;;11.14;58.07
71938;BME280;59810;48.800;9.086;2022-12-29T01:31:32;97158.97;;;11.22;57.76
71938;BME280;59810;48.800;9.086;2022-12-29T01:33:57;97154.91;;;11.25;58.12
71938;BME280;59810;48.800;9.086;2022-12-29T01:36:24;97157.34;;;11.27;58.31
71938;BME280;59810;48.800;9.086;2022-12-29T01:38:49;97157.59;;;11.25;58.04
71938;BME280;59810;48.800;9.086;2022-12-29T01:41:20;97155.72;;;11.26;57.69
71938;BME280;59810;48.800;9.086;2022-12-29T01:46:37;97160.84;;;11.27;57.66
71938;BME280;59810;48.800;9.086;2022-12-29T01:49:24;97162.75;;;11.27;57.50
71938;BME280;59810;48.800;9.086;2022-12-29T01:52:00;97166.00;;;11.29;57.54
71938;BME280;59810;48.800;9.086;2022-12-29T01:54:37;97158.69;;;11.29;57.42
71938;BME280;59810;48.800;9.086;2022-12-29T01:57:10;97150.06;;;11.32;57.20
71938;BME280;59810;48.800;9.086;2022-12-29T01:59:45;97153.59;;;11.38;56.88
71938;BME280;59810;48.800;9.086;2022-12-29T02:02:13;97145.22;;;11.39;57.61
71938;BME280;59810;48.800;9.086;2022-12-29T02:04:40;97142.78;;;11.38;56.90
71938;BME280;59810;48.800;9.086;2022-12-29T02:07:14;97131.44;;;11.41;56.89
71938;BME280;59810;48.800;9.086;2022-12-29T02:09:42;97138.22;;;11.43;56.84
71938;BME280;59810;48.800;9.086;2022-12-29T02:12:07;97138.50;;;11.47;56.20
71938;BME280;59810;48.800;9.086;2022-12-29T02:14:33;97126.31;;;11.44;56.67
71938;BME280;59810;48.800;9.086;2022-12-29T02:17:06;97122.53;;;11.45;57.04
71938;BME280;59810;48.800;9.086;2022-12-29T02:28:28;97124.44;;;11.45;57.11
71938;BME280;59810;48.800;9.086;2022-12-29T02:31:18;97119.81;;;11.40;56.89
71938;BME280;59810;48.800;9.086;2022-12-29T02:34:00;97123.06;;;11.42;56.31
71938;BME280;59810;48.800;9.086;2022-12-29T02:36:42;97122.53;;;11.45;56.87
71938;BME280;59810;48.800;9.086;2022-12-29T02:39:15;97127.69;;;11.47;56.53
71938;BME280;59810;48.800;9.086;2022-12-29T02:45:05;97117.94;;;11.51;56.24
71938;BME280;59810;48.800;9.086;2022-12-29T02:47:57;97120.91;;;11.54;56.65
71938;BME280;59810;48.800;9.086;2022-12-29T02:50:33;97117.94;;;11.51;56.36
71938;BME280;59810;48.800;9.086;2022-12-29T02:53:05;97120.38;;;11.52;56.06
71938;BME280;59810;48.800;9.086;2022-12-29T02:55:31;97121.19;;;11.58;56.16
71938;BME280;59810;48.800;9.086;2022-12-29T02:58:19;97115.25;;;11.61;56.28
71938;BME280;59810;48.800;9.086;2022-12-29T03:07:00;97114.97;;;11.63;56.37
71938;BME280;59810;48.800;9.086;2022-12-29T03:13:39;97118.50;;;11.68;55.86
71938;BME280;59810;48.800;9.086;2022-12-29T03:16:07;97112.00;;;11.69;55.68
71938;BME280;59810;48.800;9.086;2022-12-29T03:21:44;97098.22;;;11.71;55.63
71938;BME280;59810;48.800;9.086;2022-12-29T03:24:32;97100.38;;;11.69;56.59
71938;BME280;59810;48.800;9.086;2022-12-29T03:27:01;97102.00;;;11.60;56.69
71938;BME280;59810;48.800;9.086;2022-12-29T03:29:31;97093.34;;;11.68;56.16
71938;BME280;59810;48.800;9.086;2022-12-29T03:32:00;97095.22;;;11.67;56.19
71938;BME280;59810;48.800;9.086;2022-12-29T03:34:35;97093.06;;;11.64;56.40
71938;BME280;59810;48.800;9.086;2022-12-29T03:37:09;97094.97;;;11.69;56.29
71938;BME280;59810;48.800;9.086;2022-12-29T03:39:35;97083.63;;;11.77;55.98
71938;BME280;59810;48.800;9.086;2022-12-29T03:42:06;97088.00;;;11.78;56.09
71938;BME280;59810;48.800;9.086;2022-12-29T03:44:39;97072.84;;;11.82;55.99
71938;BME280;59810;48.800;9.086;2022-12-29T03:47:06;97073.63;;;11.77;55.98
71938;BME280;59810;48.800;9.086;2022-12-29T03:49:33;97063.06;;;11.76;56.42
71938;BME280;59810;48.800;9.086;2022-12-29T03:51:59;97061.44;;;11.75;56.47
71938;BME280;59810;48.800;9.086;2022-12-29T03:54:27;97066.03;;;11.69;56.62
71938;BME280;59810;48.800;9.086;2022-12-29T03:56:52;97081.16;;;11.65;57.03
71938;BME280;59810;48.800;9.086;2022-12-29T03:59:20;97078.19;;;11.62;57.39
71938;BME280;59810;48.800;9.086;2022-12-29T04:01:48;97069.28;;;11.56;57.46
71938;BME280;59810;48.800;9.086;2022-12-29T04:04:13;97066.31;;;11.52;57.44
71938;BME280;59810;48.800;9.086;2022-12-29T04:06:39;97079.81;;;11.47;57.63
71938;BME280;59810;48.800;9.086;2022-12-29T04:09:05;97070.09;;;11.46;57.99
71938;BME280;59810;48.800;9.086;2022-12-29T04:11:30;97074.94;;;11.34;58.52
71938;BME280;59810;48.800;9.086;2022-12-29T04:13:58;97069.25;;;11.36;58.26
71938;BME280;59810;48.800;9.086;2022-12-29T04:16:23;97088.44;;;11.34;58.63
71938;BME280;59810;48.800;9.086;2022-12-29T04:18:51;97091.41;;;11.38;58.50
71938;BME280;59810;48.800;9.086;2022-12-29T04:21:16;97098.72;;;11.37;58.69
71938;BME280;59810;48.800;9.086;2022-12-29T04:23:44;97105.19;;;11.36;58.50
71938;BME280;59810;48.800;9.086;2022-12-29T04:26:09;97106.28;;;11.35;58.84
71938;BME280;59810;48.800;9.086;2022-12-29T04:28:36;97110.59;;;11.31;59.28
71938;BME280;59810;48.800;9.086;2022-12-29T04:31:05;97096.53;;;11.29;59.48
71938;BME280;59810;48.800;9.086;2022-12-29T04:33:30;97092.50;;;11.27;59.64
71938;BME280;59810;48.800;9.086;2022-12-29T04:35:56;97088.44;;;11.24;60.05
71938;BME280;59810;48.800;9.086;2022-12-29T04:38:25;97080.88;;;11.31;60.05
71938;BME280;59810;48.800;9.086;2022-12-29T04:40:50;97084.13;;;11.33;59.92
71938;BME280;59810;48.800;9.086;2022-12-29T04:43:18;97088.16;;;11.31;60.07
71938;BME280;59810;48.800;9.086;2022-12-29T04:45:46;97085.72;;;11.29;60.43
71938;BME280;59810;48.800;9.086;2022-12-29T04:48:12;97087.34;;;11.30;60.60
71938;BME280;59810;48.800;9.086;2022-12-29T04:50:39;97094.91;;;11.28;60.44
71938;BME280;59810;48.800;9.086;2022-12-29T04:53:07;97083.56;;;11.26;60.84
71938;BME280;59810;48.800;9.086;2022-12-29T04:55:32;97088.72;;;11.33;60.84
71938;BME280;59810;48.800;9.086;2022-12-29T04:57:58;97096.53;;;11.34;60.91
71938;BME280;59810;48.800;9.086;2022-12-29T05:00:26;97090.88;;;11.31;61.25
71938;BME280;59810;48.800;9.086;2022-12-29T05:02:51;97088.44;;;11.24;61.64
71938;BME280;59810;48.800;9.086;2022-12-29T05:05:17;97081.66;;;11.21;61.83
71938;BME280;59810;48.800;9.086;2022-12-29T05:07:43;97081.41;;;11.33;61.45
71938;BME280;59810;48.800;9.086;2022-12-29T05:10:08;97080.88;;;11.31;61.49
71938;BME280;59810;48.800;9.086;2022-12-29T05:12:35;97067.34;;;11.26;61.80
71938;BME280;59810;48.800;9.086;2022-12-29T05:15:01;97075.47;;;11.36;61.38
71938;BME280;59810;48.800;9.086;2022-12-29T05:17:28;97071.16;;;11.35;61.57
71938;BME280;59810;48.800;9.086;2022-12-29T05:19:55;97068.19;;;11.42;61.47
71938;BME280;59810;48.800;9.086;2022-12-29T05:22:21;97066.84;;;11.44;61.18
71938;BME280;59810;48.800;9.086;2022-12-29T05:24:47;97058.47;;;11.46;61.20
71938;BME280;59810;48.800;9.086;2022-12-29T05:27:12;97061.72;;;11.48;61.32
71938;BME280;59810;48.800;9.086;2022-12-29T05:29:38;97061.97;;;11.51;61.01
71938;BME280;59810;48.800;9.086;2022-12-29T05:32:03;97081.19;;;11.60;60.98
71938;BME280;59810;48.800;9.086;2022-12-29T05:34:29;97080.09;;;11.56;61.08
71938;BME280;59810;48.800;9.086;2022-12-29T05:36:54;97072.78;;;11.62;60.99
71938;BME280;59810;48.800;9.086;2022-12-29T05:39:19;97065.75;;;11.61;60.93
71938;BME280;59810;48.800;9.086;2022-12-29T05:41:45;97070.91;;;11.67;60.48
71938;BME280;59810;48.800;9.086;2022-12-29T05:44:11;97078.19;;;11.67;60.58
71938;BME280;59810;48.800;9.086;2022-12-29T05:46:36;97069.53;;;11.70;60.43
71938;BME280;59810;48.800;9.086;2022-12-29T05:49:08;97073.91;;;11.76;60.27
71938;BME280;59810;48.800;9.086;2022-12-29T05:51:35;97078.78;;;11.79;60.11
71938;BME280;59810;48.800;9.086;2022-12-29T05:54:03;97077.44;;;11.81;60.57
71938;BME280;59810;48.800;9.086;2022-12-29T05:56:28;97061.19;;;11.76;60.34
71938;BME280;59810;48.800;9.086;2022-12-29T05:58:53;97067.44;;;11.82;60.24
71938;BME280;59810;48.800;9.086;2022-12-29T06:01:19;97057.97;;;11.84;59.98
71938;BME280;59810;48.800;9.086;2022-12-29T06:03:44;97052.28;;;11.86;59.86
71938;BME280;59810;48.800;9.086;2022-12-29T06:06:09;97033.88;;;11.83;60.13
71938;BME280;59810;48.800;9.086;2022-12-29T06:08:37;97030.66;;;11.81;60.06
71938;BME280;59810;48.800;9.086;2022-12-29T06:11:05;97023.06;;;11.78;59.98
71938;BME280;59810;48.800;9.086;2022-12-29T06:13:30;97030.63;;;11.71;60.39
71938;BME280;59810;48.800;9.086;2022-12-29T06:16:00;97035.47;;;11.69;60.05
71938;BME280;59810;48.800;9.086;2022-12-29T06:18:26;97044.13;;;11.66;60.33
71938;BME280;59810;48.800;9.086;2022-12-29T06:20:51;97045.22;;;11.65;60.28
71938;BME280;59810;48.800;9.086;2022-12-29T06:23:16;97052.25;;;11.66;60.05
71938;BME280;59810;48.800;9.086;2022-12-29T06:25:43;97049.25;;;11.67;60.32
71938;BME280;59810;48.800;9.086;2022-12-29T06:28:08;97046.03;;;11.60;60.37
71938;BME280;59810;48.800;9.086;2022-12-29T06:30:37;97054.13;;;11.55;60.39
71938;BME280;59810;48.800;9.086;2022-12-29T06:33:03;97044.69;;;11.58;60.51
71938;BME280;59810;48.800;9.086;2022-12-29T06:35:29;97041.72;;;11.54;60.42
71938;BME280;59810;48.800;9.086;2022-12-29T06:37:54;97043.59;;;11.53;60.68
71938;BME280;59810;48.800;9.086;2022-12-29T06:40:20;97029.00;;;11.54;60.51
71938;BME280;59810;48.800;9.086;2022-12-29T06:42:48;97037.13;;;11.49;60.38
71938;BME280;59810;48.800;9.086;2022-12-29T06:45:14;97039.28;;;11.52;60.48
71938;BME280;59810;48.800;9.086;2022-12-29T06:47:39;97033.34;;;11.50;60.33
71938;BME280;59810;48.800;9.086;2022-12-29T06:50:05;97027.38;;;11.53;60.22
71938;BME280;59810;48.800;9.086;2022-12-29T06:52:30;97027.09;;;11.60;59.89
71938;BME280;59810;48.800;9.086;2022-12-29T06:54:56;97042.22;;;11.66;59.52
71938;BME280;59810;48.800;9.086;2022-12-29T06:57:21;97035.19;;;11.65;59.63
71938;BME280;59810;48.800;9.086;2022-12-29T06:59:47;97040.59;;;11.70;59.35
71938;BME280;59810;48.800;9.086;2022-12-29T07:02:12;97040.38;;;11.72;59.25
71938;BME280;59810;48.800;9.086;2022-12-29T07:04:43;97049.00;;;11.69;59.37
71938;BME280;59810;48.800;9.086;2022-12-29T07:07:08;97041.41;;;11.66;59.16
71938;BME280;59810;48.800;9.086;2022-12-29T07:09:33;97053.59;;;11.63;59.43
71938;BME280;59810;48.800;9.086;2022-12-29T07:12:01;97043.59;;;11.64;59.25
71938;BME280;59810;48.800;9.086;2022-12-29T07:14:26;97053.06;;;11.66;59.56
71938;BME280;59810;48.800;9.086;2022-12-29T07:16:52;97046.31;;;11.59;59.24
71938;BME280;59810;48.800;9.086;2022-12-29T07:19:17;97042.78;;;11.58;59.21
71938;BME280;59810;48.800;9.086;2022-12-29T07:21:42;97059.53;;;11.55;59.10
71938;BME280;59810;48.800;9.086;2022-12-29T07:24:09;97050.09;;;11.47;59.61
71938;BME280;59810;48.800;9.086;2022-12-29T07:26:34;97047.94;;;11.44;59.29
71938;BME280;59810;48.800;9.086;2022-12-29T07:29:01;97057.94;;;11.39;59.68
71938;BME280;59810;48.800;9.086;2022-12-29T07:31:27;97063.03;;;11.35;59.81
71938;BME280;59810;48.800;9.086;2022-12-29T07:33:52;97059.25;;;11.36;63.45
71938;BME280;59810;48.800;9.086;2022-12-29T07:36:20;97060.88;;;11.32;61.42
71938;BME280;59810;48.800;9.086;2022-12-29T07:38:47;97057.34;;;11.32;60.02
71938;BME280;59810;48.800;9.086;2022-12-29T07:41:13;97055.19;;;11.29;60.23
71938;BME280;59810;48.800;9.086;2022-12-29T07:43:38;97065.19;;;11.33;60.23
71938;BME280;59810;48.800;9.086;2022-12-29T07:46:06;97058.16;;;11.32;59.84
71938;BME280;59810;48.800;9.086;2022-12-29T07:48:31;97063.31;;;11.29;59.50
71938;BME280;59810;48.800;9.086;2022-12-29T07:51:01;97066.28;;;11.27;59.47
71938;BME280;59810;48.800;9.086;2022-12-29T07:53:26;97052.50;;;11.18;59.85
71938;BME280;59810;48.800;9.086;2022-12-29T07:55:54;97051.94;;;11.16;59.60
71938;BME280;59810;48.800;9.086;2022-12-29T07:58:19;97055.47;;;11.17;59.99
71938;BME280;59810;48.800;9.086;2022-12-29T08:00:47;97062.47;;;11.18;59.71
71938;BME280;59810;48.800;9.086;2022-12-29T08:03:12;97056.53;;;11.21;59.85
71938;BME280;59810;48.800;9.086;2022-12-29T08:05:37;97063.03;;;11.20;60.07
71938;BME280;59810;48.800;9.086;2022-12-29T08:08:03;97076.53;;;11.20;59.62
71938;BME280;59810;48.800;9.086;2022-12-29T08:10:28;97084.66;;;11.25;59.49
71938;BME280;59810;48.800;9.086;2022-12-29T08:12:54;97083.84;;;11.25;59.57
71938;BME280;59810;48.800;9.086;2022-12-29T08:15:21;97085.72;;;11.24;59.57
71938;BME280;59810;48.800;9.086;2022-12-29T08:17:47;97092.75;;;11.30;58.96
71938;BME280;59810;48.800;9.086;2022-12-29T08:20:12;97096.28;;;11.36;59.04
71938;BME280;59810;48.800;9.086;2022-12-29T08:22:40;97101.72;;;11.41;59.01
71938;BME280;59810;48.800;9.086;2022-12-29T08:25:06;97094.69;;;11.45;58.60
71938;BME280;59810;48.800;9.086;2022-12-29T08:27:31;97090.09;;;11.45;58.47
71938;BME280;59810;48.800;9.086;2022-12-29T08:29:56;97102.00;;;11.49;58.52
71938;BME280;59810;48.800;9.086;2022-12-29T08:32:22;97083.34;;;11.58;58.06
71938;BME280;59810;48.800;9.086;2022-12-29T08:34:47;97089.56;;;11.59;58.34
71938;BME280;59810;48.800;9.086;2022-12-29T08:37:12;97077.13;;;11.58;58.27
71938;BME280;59810;48.800;9.086;2022-12-29T08:39:40;97071.19;;;11.56;58.23
71938;BME280;59810;48.800;9.086;2022-12-29T08:42:05;97082.53;;;11.58;58.52
71938;BME280;59810;48.800;9.086;2022-12-29T08:44:33;97080.91;;;11.57;58.55
71938;BME280;59810;48.800;9.086;2022-12-29T08:46:59;97089.81;;;11.62;58.22
71938;BME280;59810;48.800;9.086;2022-12-29T08:49:24;97080.91;;;11.62;58.50
71938;BME280;59810;48.800;9.086;2022-12-29T08:51:52;97089.28;;;11.65;58.17
71938;BME280;59810;48.800;9.086;2022-12-29T08:54:17;97085.25;;;11.73;57.96
71938;BME280;59810;48.800;9.086;2022-12-29T08:56:43;97085.81;;;11.80;61.65
71938;BME280;59810;48.800;9.086;2022-12-29T08:59:08;97091.22;;;11.85;59.93
71938;BME280;59810;48.800;9.086;2022-12-29T09:01:33;97095.00;;;11.99;61.41
71938;BME280;59810;48.800;9.086;2022-12-29T09:04:01;97093.38;;;12.08;60.39
71938;BME280;59810;48.800;9.086;2022-12-29T09:06:30;97102.56;;;12.18;62.89
71938;BME280;59810;48.800;9.086;2022-12-29T09:08:55;97103.09;;;12.25;58.92
71938;BME280;59810;48.800;9.086;2022-12-29T09:11:22;97115.53;;;12.31;59.04
71938;BME280;59810;48.800;9.086;2022-12-29T09:13:48;97118.50;;;12.39;58.78
71938;BME280;59810;48.800;9.086;2022-12-29T09:16:15;97105.72;;;12.55;58.97
71938;BME280;59810;48.800;9.086;2022-12-29T09:18:41;97114.91;;;12.59;56.73
71938;BME280;59810;48.800;9.086;2022-12-29T09:21:07;97121.94;;;12.65;55.91
71938;BME280;59810;48.800;9.086;2022-12-29T09:23:35;97121.41;;;12.73;56.38
71938;BME280;59810;48.800;9.086;2022-12-29T09:26:00;97122.47;;;12.77;55.95
71938;BME280;59810;48.800;9.086;2022-12-29T09:28:26;97123.50;;;12.87;55.89
71938;BME280;59810;48.800;9.086;2022-12-29T09:30:52;97123.75;;;12.90;55.65
71938;BME280;59810;48.800;9.086;2022-12-29T09:33:20;97119.66;;;13.03;55.17
71938;BME280;59810;48.800;9.086;2022-12-29T09:35:53;97132.59;;;13.16;54.72
71938;BME280;59810;48.800;9.086;2022-12-29T09:38:19;97138.28;;;13.20;54.82
71938;BME280;59810;48.800;9.086;2022-12-29T09:40:54;97131.44;;;13.37;54.18
71938;BME280;59810;48.800;9.086;2022-12-29T09:51:46;97119.66;;;13.91;54.21
71938;BME280;59810;48.800;9.086;2022-12-29T09:56:53;97134.88;;;13.87;53.13
71938;BME280;59810;48.800;9.086;2022-12-29T09:59:23;97127.28;;;13.89;53.38
71938;BME280;59810;48.800;9.086;2022-12-29T10:01:58;97132.19;;;13.87;53.43
71938;BME280;59810;48.800;9.086;2022-12-29T10:04:28;97131.94;;;13.84;53.22
71938;BME280;59810;48.800;9.086;2022-12-29T10:07:02;97135.22;;;13.81;53.76
71938;BME280;59810;48.800;9.086;2022-12-29T10:15:03;97133.44;;;13.61;54.61
71938;BME280;59810;48.800;9.086;2022-12-29T10:20:17;97126.19;;;13.51;55.06
71938;BME280;59810;48.800;9.086;2022-12-29T10:25:26;97134.03;;;13.53;55.28
71938;BME280;59810;48.800;9.086;2022-12-29T10:27:58;97138.38;;;13.54;55.53
71938;BME280;59810;48.800;9.086;2022-12-29T10:30:25;97137.00;;;13.56;55.83
71938;BME280;59810;48.800;9.086;2022-12-29T10:32:57;97119.91;;;13.56;54.68
71938;BME280;59810;48.800;9.086;2022-12-29T10:35:25;97130.69;;;13.71;54.59
71938;BME280;59810;48.800;9.086;2022-12-29T10:37:58;97137.41;;;13.79;54.74
71938;BME280;59810;48.800;9.086;2022-12-29T10:40:30;97143.00;;;13.92;54.33
71938;BME280;59810;48.800;9.086;2022-12-29T10:42:58;97133.75;;;13.93;54.66
71938;BME280;59810;48.800;9.086;2022-12-29T10:45:29;97131.03;;;13.98;54.76
71938;BME280;59810;48.800;9.086;2022-12-29T10:48:09;97128.25;;;14.04;54.08
71938;BME280;59810;48.800;9.086;2022-12-29T10:50:36;97145.13;;;14.00;54.28
71938;BME280;59810;48.800;9.086;2022-12-29T10:53:08;97119.09;;;13.94;54.27
71938;BME280;59810;48.800;9.086;2022-12-29T10:55:45;97125.84;;;14.02;54.03
71938;BME280;59810;48.800;9.086;2022-12-29T10:58:17;97119.56;;;14.07;54.21
71938;BME280;59810;48.800;9.086;2022-12-29T11:00:49;97122.25;;;14.07;54.13
71938;BME280;59810;48.800;9.086;2022-12-29T11:08:24;97123.94;;;13.97;53.89
71938;BME280;59810;48.800;9.086;2022-12-29T11:11:07;97121.22;;;14.02;53.79
71938;BME280;59810;48.800;9.086;2022-12-29T11:13:50;97120.94;;;14.04;54.04
71938;BME280;59810;48.800;9.086;2022-12-29T11:16:33;97130.47;;;14.01;53.52
71938;BME280;59810;48.800;9.086;2022-12-29T11:19:02;97130.16;;;14.03;53.37
71938;BME280;59810;48.800;9.086;2022-12-29T11:21:38;97145.31;;;14.09;53.43
71938;BME280;59810;48.800;9.086;2022-12-29T11:24:29;97135.59;;;14.03;53.12
71938;BME280;59810;48.800;9.086;2022-12-29T11:27:08;97148.34;;;14.02;52.93
71938;BME280;59810;48.800;9.086;2022-12-29T11:29:40;97136.16;;;14.00;52.78
71938;BME280;59810;48.800;9.086;2022-12-29T11:32:19;97145.66;;;13.97;52.93
71938;BME280;59810;48.800;9.086;2022-12-29T11:34:45;97152.78;;;13.88;52.58
71938;BME280;59810;48.800;9.086;2022-12-29T11:37:30;97153.38;;;13.85;52.52
71938;BME280;59810;48.800;9.086;2022-12-29T11:40:00;97155.06;;;13.76;51.88
71938;BME280;59810;48.800;9.086;2022-12-29T11:42:39;97154.06;;;13.62;51.85
71938;BME280;59810;48.800;9.086;2022-12-29T11:45:22;97154.34;;;13.60;51.80
71938;BME280;59810;48.800;9.086;2022-12-29T11:47:50;97154.69;;;13.49;53.24
71938;BME280;59810;48.800;9.086;2022-12-29T11:50:22;97159.59;;;13.47;56.00
71938;BME280;59810;48.800;9.086;2022-12-29T11:52:50;97158.63;;;13.17;60.16
71938;BME280;59810;48.800;9.086;2022-12-29T11:55:24;97161.69;;;12.90;63.20
71938;BME280;59810;48.800;9.086;2022-12-29T11:57:52;97152.81;;;12.69;64.71
71938;BME280;59810;48.800;9.086;2022-12-29T12:00:20;97161.25;;;12.48;65.75
71938;BME280;59810;48.800;9.086;2022-12-29T12:06:00;97158.28;;;12.34;67.60
71938;BME280;59810;48.800;9.086;2022-12-29T12:11:14;97150.16;;;12.34;67.83
71938;BME280;59810;48.800;9.086;2022-12-29T12:14:06;97145.56;;;12.24;67.73
71938;BME280;59810;48.800;9.086;2022-12-29T12:16:40;97136.09;;;12.32;67.27
71938;BME280;59810;48.800;9.086;2022-12-29T12:21:51;97134.72;;;12.34;66.78
71938;BME280;59810;48.800;9.086;2022-12-29T12:24:37;97135.84;;;12.38;66.19
71938;BME280;59810;48.800;9.086;2022-12-29T12:27:24;97143.66;;;12.45;67.12
71938;BME280;59810;48.800;9.086;2022-12-29T12:30:18;97139.31;;;12.49;66.35
71938;BME280;59810;48.800;9.086;2022-12-29T12:35:44;97127.06;;;12.77;63.80
71938;BME280;59810;48.800;9.086;2022-12-29T12:41:11;97133.75;;;12.95;63.45
71938;BME280;59810;48.800;9.086;2022-12-29T12:43:45;97119.91;;;13.06;63.96
71938;BME280;59810;48.800;9.086;2022-12-29T13:00:22;97109.75;;;13.37;63.02
71938;BME280;59810;48.800;9.086;2022-12-29T13:03:13;97105.03;;;13.53;62.88
71938;BME280;59810;48.800;9.086;2022-12-29T13:19:01;97091.03;;;13.36;62.85
71938;BME280;59810;48.800;9.086;2022-12-29T13:21:45;97087.56;;;13.25;62.98
71938;BME280;59810;48.800;9.086;2022-12-29T13:26:54;97099.03;;;13.07;63.17
71938;BME280;59810;48.800;9.086;2022-12-29T13:29:38;97090.47;;;12.85;63.80
71938;BME280;59810;48.800;9.086;2022-12-29T13:38:00;97093.22;;;12.74;64.70
71938;BME280;59810;48.800;9.086;2022-12-29T13:40:32;97089.13;;;12.77;64.13
71938;BME280;59810;48.800;9.086;2022-12-29T13:43:01;97093.78;;;12.71;64.62
71938;BME280;59810;48.800;9.086;2022-12-29T13:45:29;97101.09;;;12.71;64.88
71938;BME280;59810;48.800;9.086;2022-12-29T13:50:26;97101.88;;;12.76;64.66
71938;BME280;59810;48.800;9.086;2022-12-29T13:53:37;97099.19;;;12.71;65.43
71938;BME280;59810;48.800;9.086;2022-12-29T13:58:49;97090.78;;;12.68;65.09
71938;BME280;59810;48.800;9.086;2022-12-29T14:03:58;97099.72;;;12.73;65.20
71938;BME280;59810;48.800;9.086;2022-12-29T14:06:29;97096.19;;;12.68;65.23
71938;BME280;59810;48.800;9.086;2022-12-29T14:09:06;97100.28;;;12.70;65.41
71938;BME280;59810;48.800;9.086;2022-12-29T14:11:50;97104.59;;;12.71;65.73
71938;BME280;59810;48.800;9.086;2022-12-29T14:14:21;97100.28;;;12.70;65.51
71938;BME280;59810;48.800;9.086;2022-12-29T14:16:48;97105.69;;;12.70;66.04
71938;BME280;59810;48.800;9.086;2022-12-29T14:19:17;97105.97;;;12.59;66.31
71938;BME280;59810;48.800;9.086;2022-12-29T14:22:10;97103.56;;;12.57;66.10
71938;BME280;59810;48.800;9.086;2022-12-29T14:24:42;97106.78;;;12.59;66.02
71938;BME280;59810;48.800;9.086;2022-12-29T14:29:43;97107.31;;;12.71;65.99
71938;BME280;59810;48.800;9.086;2022-12-29T14:34:59;97104.88;;;12.70;65.89
71938;BME280;59810;48.800;9.086;2022-12-29T14:40:06;97103.81;;;12.56;66.28
71938;BME280;59810;48.800;9.086;2022-12-29T14:42:38;97112.22;;;12.54;66.44
71938;BME280;59810;48.800;9.086;2022-12-29T14:45:24;97117.13;;;12.47;66.50
71938;BME280;59810;48.800;9.086;2022-12-29T14:47:51;97114.44;;;12.42;66.51
71938;BME280;59810;48.800;9.086;2022-12-29T14:50:24;97107.41;;;12.41;66.64
71938;BME280;59810;48.800;9.086;2022-12-29T14:58:26;97105.25;;;12.38;66.65
71938;BME280;59810;48.800;9.086;2022-12-29T15:00:53;97099.81;;;12.33;66.28
71938;BME280;59810;48.800;9.086;2022-12-29T15:03:28;97102.28;;;12.24;66.70
71938;BME280;59810;48.800;9.086;2022-12-29T15:05:57;97098.22;;;12.27;66.53
71938;BME280;59810;48.800;9.086;2022-12-29T15:08:32;97093.91;;;12.21;66.93
71938;BME280;59810;48.800;9.086;2022-12-29T15:11:04;97092.03;;;12.11;67.27
71938;BME280;59810;48.800;9.086;2022-12-29T15:13:36;97089.03;;;12.02;67.25
71938;BME280;59810;48.800;9.086;2022-12-29T15:16:03;97087.41;;;12.01;67.81
71938;BME280;59810;48.800;9.086;2022-12-29T15:18:33;97087.16;;;11.98;67.64
71938;BME280;59810;48.800;9.086;2022-12-29T15:21:04;97093.38;;;11.98;67.84
71938;BME280;59810;48.800;9.086;2022-12-29T15:23:32;97090.13;;;11.91;67.64
71938;BME280;59810;48.800;9.086;2022-12-29T15:26:07;97106.91;;;11.93;67.86